Time;durP1;ratioP1;P1;durP2;ratioP2;P2;SDS_P1;SDS_P2;PMS_P1;PMS_P2;Temp;Humidity;BMP_temperature;BMP_pressure;BME280_temperature;BME280_humidity;BME280_pressure;Samples;Min_cycle;Max_cycle;Signal;HPM_P1;HPM_P2
2020/02/22 00:02:36;;;;;;;2.1;1.5;;;;;;;23.7;31.99512;972.5095;;;;
2020/02/22 00:05:46;;;;;;;3.1;1.8;;;;;;;23.72;31.97266;972.5594;;;;
2020/02/22 00:08:57;;;;;;;3.3;1.9;;;;;;;23.68;32.05371;972.5048;;;;
2020/02/22 00:12:07;;;;;;;2.6;1.7;;;;;;;23.8;31.92969;972.4783;;;;
2020/02/22 00:15:18;;;;;;;3.7;1.7;;;;;;;23.74;31.92676;972.4545;;;;
2020/02/22 00:18:28;;;;;;;1.9;1.7;;;;;;;23.15;31.88379;972.3145;;;;
2020/02/22 00:21:37;;;;;;;2.5;1.7;;;;;;;22.82;32.33691;972.308;;;;
2020/02/22 00:24:47;;;;;;;4.6;1.8;;;;;;;22.74;32.70117;972.3282;;;;
2020/02/22 00:27:57;;;;;;;2.7;1.9;;;;;;;22.73;32.62891;972.2466;;;;
2020/02/22 00:31:12;;;;;;;3;1.7;;;;;;;22.71;32.85449;972.1783;;;;
2020/02/22 00:34:22;;;;;;;3.1;1.9;;;;;;;22.68;32.82813;972.1536;;;;
2020/02/22 00:37:32;;;;;;;3.4;1.9;;;;;;;22.66;32.59961;972.0922;;;;
2020/02/22 00:40:42;;;;;;;5.1;1.8;;;;;;;22.7;32.65039;972.0491;;;;
2020/02/22 00:43:58;;;;;;;5.3;1.9;;;;;;;22.67;32.68457;972.0853;;;;
2020/02/22 00:47:11;;;;;;;2.3;1.5;;;;;;;22.68;32.67285;972.0178;;;;
2020/02/22 00:50:24;;;;;;;4.1;1.7;;;;;;;22.67;32.48145;972.0628;;;;
2020/02/22 00:53:45;;;;;;;5;1.9;;;;;;;22.68;32.32715;972.0876;;;;
2020/02/22 00:57:01;;;;;;;3.3;1.8;;;;;;;22.67;32.14844;971.9836;;;;
2020/02/22 01:00:13;;;;;;;3.9;1.7;;;;;;;22.68;31.96875;971.9969;;;;
2020/02/22 01:03:36;;;;;;;3.4;1.8;;;;;;;22.68;32.00586;971.9822;;;;
2020/02/22 01:06:46;;;;;;;2.7;1.6;;;;;;;22.68;32.04102;972.052;;;;
2020/02/22 01:10:00;;;;;;;2.1;1.7;;;;;;;22.67;31.69434;972.0511;;;;
2020/02/22 01:13:13;;;;;;;2.8;1.7;;;;;;;22.65;31.69336;972.0488;;;;
2020/02/22 01:16:23;;;;;;;2.5;1.6;;;;;;;22.63;31.83496;972.0756;;;;
2020/02/22 01:19:33;;;;;;;2.3;1.5;;;;;;;22.62;32.0127;972.0903;;;;
2020/02/22 01:22:44;;;;;;;2.4;1.5;;;;;;;22.6;31.96289;972.0211;;;;
2020/02/22 01:25:55;;;;;;;2.7;1.6;;;;;;;22.57;32.05664;972.0349;;;;
2020/02/22 01:28:46;;;;;;;2.4;1.6;;;;;;;22.54;32.19824;971.9612;;;;
2020/02/22 01:32:09;;;;;;;2.7;1.8;;;;;;;22.51;32.0293;972.0991;;;;
2020/02/22 01:35:50;;;;;;;2.4;1.6;;;;;;;22.5;32.23047;972.1627;;;;
2020/02/22 01:39:02;;;;;;;3;1.6;;;;;;;22.48;32.11035;972.0485;;;;
2020/02/22 01:42:16;;;;;;;2;1.6;;;;;;;22.45;32.3584;971.983;;;;
2020/02/22 01:46:10;;;;;;;1.9;1.6;;;;;;;22.41;32.30762;971.9242;;;;
2020/02/22 01:49:53;;;;;;;2.6;1.7;;;;;;;22.4;32.05762;971.9125;;;;
2020/02/22 01:53:13;;;;;;;2;1.5;;;;;;;22.38;32.15039;971.8154;;;;
2020/02/22 01:56:41;;;;;;;2.5;1.7;;;;;;;22.38;32.1748;971.8603;;;;
2020/02/22 02:00:05;;;;;;;2;1.7;;;;;;;22.33;32.20703;971.7902;;;;
2020/02/22 02:03:19;;;;;;;1.7;1.5;;;;;;;22.3;32.10938;971.7828;;;;
2020/02/22 02:08:24;;;;;;;2.9;1.7;;;;;;;22.29;31.73926;971.7367;;;;
2020/02/22 02:11:36;;;;;;;2.8;1.5;;;;;;;22.27;32.02344;971.7133;;;;
2020/02/22 02:14:27;;;;;;;3.2;1.5;;;;;;;22.25;32.18945;971.6557;;;;
2020/02/22 02:17:48;;;;;;;2.3;1.5;;;;;;;22.23;32.05664;971.5717;;;;
2020/02/22 02:21:13;;;;;;;2.7;1.7;;;;;;;22.2;32.14941;971.5776;;;;
2020/02/22 02:24:46;;;;;;;2.6;1.7;;;;;;;22.19;32.00586;971.6071;;;;
2020/02/22 02:28:24;;;;;;;2.2;1.6;;;;;;;22.16;32.43262;971.5901;;;;
2020/02/22 02:31:53;;;;;;;1.9;1.5;;;;;;;22.15;31.93066;971.4614;;;;
2020/02/22 02:35:33;;;;;;;2.2;1.6;;;;;;;22.13;31.78711;971.5131;;;;
2020/02/22 02:38:44;;;;;;;2.9;1.5;;;;;;;22.13;31.84766;971.4721;;;;
2020/02/22 02:42:13;;;;;;;1.9;1.6;;;;;;;22.12;31.5957;971.3642;;;;
2020/02/22 02:45:31;;;;;;;2.4;1.6;;;;;;;22.09;32.02246;971.4322;;;;
2020/02/22 02:48:58;;;;;;;2;1.6;;;;;;;22.09;31.86719;971.3979;;;;
2020/02/22 02:56:11;;;;;;;1.9;1.5;;;;;;;22.03;31.89941;971.2813;;;;
2020/02/22 02:59:40;;;;;;;2.7;1.6;;;;;;;22.02;31.7793;971.2789;;;;
2020/02/22 03:02:58;;;;;;;2.7;1.8;;;;;;;22;32.04004;971.3005;;;;
2020/02/22 03:06:49;;;;;;;2.1;1.6;;;;;;;21.98;31.35938;971.3469;;;;
2020/02/22 03:10:13;;;;;;;2.1;1.6;;;;;;;21.97;31.78809;971.3102;;;;
2020/02/22 03:13:23;;;;;;;1.8;1.4;;;;;;;21.96;31.76367;971.3381;;;;
2020/02/22 03:16:44;;;;;;;1.7;1.4;;;;;;;21.97;31.68066;971.3762;;;;
2020/02/22 03:20:00;;;;;;;2.3;1.6;;;;;;;21.95;31.97656;971.3791;;;;
2020/02/22 03:23:12;;;;;;;2.1;1.6;;;;;;;21.94;31.46387;971.4124;;;;
2020/02/22 03:26:39;;;;;;;2.5;1.7;;;;;;;21.92;31.55859;971.4601;;;;
2020/02/22 03:29:56;;;;;;;2.3;1.5;;;;;;;21.9;31.63965;971.4813;;;;
2020/02/22 03:33:13;;;;;;;1.8;1.5;;;;;;;21.88;31.25781;971.3486;;;;
2020/02/22 03:36:35;;;;;;;2.3;1.6;;;;;;;21.88;31.68555;971.3276;;;;
2020/02/22 03:40:08;;;;;;;2.2;1.6;;;;;;;21.86;31.11328;971.3228;;;;
2020/02/22 03:43:21;;;;;;;2.1;1.5;;;;;;;21.83;31.4209;971.1955;;;;
2020/02/22 03:46:42;;;;;;;2.5;1.6;;;;;;;21.81;31.14551;971.1697;;;;
2020/02/22 03:50:29;;;;;;;1.9;1.5;;;;;;;21.82;31.76465;971.1814;;;;
2020/02/22 03:53:51;;;;;;;2.2;1.5;;;;;;;21.77;31.27344;971.2824;;;;
2020/02/22 03:57:16;;;;;;;2;1.4;;;;;;;21.77;31.57129;971.3522;;;;
2020/02/22 04:00:40;;;;;;;2.6;1.6;;;;;;;21.76;31.68945;971.2928;;;;
2020/02/22 04:06:48;;;;;;;2.2;1.7;;;;;;;21.76;31.3916;971.3245;;;;
2020/02/22 04:10:00;;;;;;;2.5;1.5;;;;;;;21.72;31.55566;971.3095;;;;
2020/02/22 04:13:11;;;;;;;1.8;1.5;;;;;;;21.71;31.24609;971.2411;;;;
2020/02/22 04:18:18;;;;;;;2.2;1.6;;;;;;;21.69;31.48242;971.3231;;;;
2020/02/22 04:21:43;;;;;;;1.8;1.5;;;;;;;21.69;31.3623;971.447;;;;
2020/02/22 04:25:22;;;;;;;2.6;1.6;;;;;;;21.68;30.92188;971.5632;;;;
2020/02/22 04:28:55;;;;;;;2.2;1.6;;;;;;;21.67;31.4209;971.6544;;;;
2020/02/22 04:32:12;;;;;;;2.6;1.7;;;;;;;21.65;31.11035;971.7495;;;;
2020/02/22 04:35:29;;;;;;;1.7;1.6;;;;;;;21.63;30.99023;971.8614;;;;
2020/02/22 04:38:44;;;;;;;2.2;1.5;;;;;;;21.62;31.07324;972.0038;;;;
2020/02/22 04:42:00;;;;;;;2.2;1.7;;;;;;;21.61;30.95215;971.9673;;;;
2020/02/22 04:45:18;;;;;;;1.5;1.4;;;;;;;21.6;31.20215;971.9067;;;;
2020/02/22 04:48:36;;;;;;;2.2;1.7;;;;;;;21.59;31.05859;971.7687;;;;
2020/02/22 04:51:49;;;;;;;3.2;1.7;;;;;;;21.57;30.90234;971.677;;;;
2020/02/22 04:55:08;;;;;;;2.5;1.7;;;;;;;21.56;30.74707;971.7428;;;;
2020/02/22 04:58:20;;;;;;;2.4;1.7;;;;;;;21.54;31.25781;971.6458;;;;
2020/02/22 05:01:34;;;;;;;2;1.5;;;;;;;21.53;31.31641;971.6828;;;;
2020/02/22 05:04:53;;;;;;;2.3;1.5;;;;;;;21.51;31.14844;971.6833;;;;
2020/02/22 05:08:14;;;;;;;2.2;1.5;;;;;;;21.5;31.09961;971.632;;;;
2020/02/22 05:11:33;;;;;;;2.2;1.6;;;;;;;21.47;31.24023;971.5547;;;;
2020/02/22 05:14:52;;;;;;;2.5;1.5;;;;;;;21.45;31.20313;971.4708;;;;
2020/02/22 05:18:12;;;;;;;2.3;1.7;;;;;;;21.45;31.0957;971.4576;;;;
2020/02/22 05:21:39;;;;;;;2;1.6;;;;;;;21.43;31.1543;971.3948;;;;
2020/02/22 05:24:58;;;;;;;1.8;1.5;;;;;;;21.44;31.13086;971.4514;;;;
2020/02/22 05:27:28;;;;;;;2.3;1.7;;;;;;;21.41;31.02246;971.4255;;;;
2020/02/22 05:30:43;;;;;;;3;1.9;;;;;;;21.41;30.92676;971.3503;;;;
2020/02/22 05:33:57;;;;;;;1.8;1.6;;;;;;;21.41;30.89063;971.207;;;;
2020/02/22 05:37:10;;;;;;;2;1.6;;;;;;;21.39;30.99707;971.0203;;;;
2020/02/22 05:40:23;;;;;;;2.1;1.7;;;;;;;21.37;31.29297;970.8101;;;;
2020/02/22 05:43:39;;;;;;;2.1;1.7;;;;;;;21.37;30.87598;970.7481;;;;
2020/02/22 05:46:53;;;;;;;1.9;1.6;;;;;;;21.37;31.18555;970.7048;;;;
2020/02/22 05:50:03;;;;;;;1.9;1.5;;;;;;;21.35;31.01855;970.8522;;;;
2020/02/22 05:53:18;;;;;;;2.3;1.8;;;;;;;21.34;30.81543;970.9156;;;;
2020/02/22 05:56:31;;;;;;;2.3;1.7;;;;;;;21.32;30.65918;970.9911;;;;
2020/02/22 05:59:46;;;;;;;2.1;1.5;;;;;;;21.31;30.93262;971.0809;;;;
2020/02/22 06:03:05;;;;;;;1.7;1.6;;;;;;;21.3;30.78906;971.1428;;;;
2020/02/22 06:06:21;;;;;;;2;1.8;;;;;;;21.3;31.19238;971.1047;;;;
2020/02/22 06:09:37;;;;;;;2.2;1.7;;;;;;;21.31;31.4668;971.0584;;;;
2020/02/22 06:12:51;;;;;;;2.1;1.6;;;;;;;21.35;31.43359;971.1248;;;;
2020/02/22 06:16:02;;;;;;;1.8;1.6;;;;;;;21.43;31.33301;971.1314;;;;
2020/02/22 06:19:20;;;;;;;2.3;1.7;;;;;;;21.53;31.20898;971.0825;;;;
2020/02/22 06:22:33;;;;;;;2.4;1.5;;;;;;;21.61;31.27344;971.1205;;;;
2020/02/22 06:25:46;;;;;;;2;1.6;;;;;;;21.69;31.30371;971.2046;;;;
2020/02/22 06:29:02;;;;;;;2.6;1.7;;;;;;;21.77;31.29688;971.182;;;;
2020/02/22 06:32:30;;;;;;;2;1.6;;;;;;;21.85;31.35059;971.2452;;;;
2020/02/22 06:35:50;;;;;;;2.7;1.6;;;;;;;21.92;31.40332;971.223;;;;
2020/02/22 06:38:59;;;;;;;2.4;1.6;;;;;;;21.98;31.50293;971.0848;;;;
2020/02/22 06:42:10;;;;;;;2.1;1.6;;;;;;;22.04;31.58984;970.9584;;;;
2020/02/22 06:45:44;;;;;;;2.5;1.6;;;;;;;22.12;31.89355;970.8912;;;;
2020/02/22 06:49:12;;;;;;;2.1;1.6;;;;;;;22.18;31.87402;970.9983;;;;
2020/02/22 06:52:46;;;;;;;2.4;1.6;;;;;;;22.24;31.83105;971.1392;;;;
2020/02/22 06:56:03;;;;;;;1.9;1.7;;;;;;;22.3;31.83496;971.2291;;;;
2020/02/22 06:59:41;;;;;;;1.8;1.5;;;;;;;22.34;31.83789;971.1558;;;;
2020/02/22 07:03:00;;;;;;;2.3;1.6;;;;;;;22.36;31.89941;971.2001;;;;
2020/02/22 07:09:41;;;;;;;3.7;2;;;;;;;22.42;32.20117;971.113;;;;
2020/02/22 07:12:53;;;;;;;2.8;1.5;;;;;;;22.46;32.16797;971.1283;;;;
2020/02/22 07:16:08;;;;;;;1.9;1.4;;;;;;;22.5;32.27832;971.2209;;;;
2020/02/22 07:19:18;;;;;;;3.3;1.5;;;;;;;22.54;32.12598;971.0722;;;;
2020/02/22 07:22:29;;;;;;;3.9;1.6;;;;;;;22.59;32.2373;970.9805;;;;
2020/02/22 07:25:53;;;;;;;2;1.5;;;;;;;22.65;32.46777;970.9684;;;;
2020/02/22 07:29:11;;;;;;;6.6;1.8;;;;;;;22.67;32.44629;970.9771;;;;
2020/02/22 07:32:38;;;;;;;5;1.7;;;;;;;22.69;32.44727;971.0005;;;;
2020/02/22 07:35:53;;;;;;;5.5;1.7;;;;;;;22.71;32.4248;971.0226;;;;
2020/02/22 07:39:09;;;;;;;4.6;1.7;;;;;;;22.72;32.46191;970.9894;;;;
2020/02/22 07:42:18;;;;;;;5.3;1.6;;;;;;;22.74;32.46289;970.9506;;;;
2020/02/22 07:45:28;;;;;;;3.5;1.5;;;;;;;22.77;32.42969;970.822;;;;
2020/02/22 07:48:43;;;;;;;5.6;1.6;;;;;;;22.83;32.41016;970.7932;;;;
2020/02/22 07:51:56;;;;;;;7.8;1.8;;;;;;;22.81;32.49219;970.8789;;;;
2020/02/22 07:55:09;;;;;;;4.9;1.6;;;;;;;22.93;32.57227;970.9097;;;;
2020/02/22 07:58:19;;;;;;;7.5;1.7;;;;;;;23.07;32.37988;970.9394;;;;
2020/02/22 08:01:35;;;;;;;5;1.8;;;;;;;23.18;32.31641;970.9579;;;;
2020/02/22 08:04:53;;;;;;;7.5;1.9;;;;;;;23.25;32.27344;971.0223;;;;
2020/02/22 08:08:08;;;;;;;15.6;2;;;;;;;23.38;32.43848;971.093;;;;
2020/02/22 08:11:23;;;;;;;14.2;1.8;;;;;;;23.4;32.41602;971.1334;;;;
2020/02/22 08:14:41;;;;;;;9.4;1.9;;;;;;;23.46;32.59863;971.1794;;;;
2020/02/22 08:17:50;;;;;;;15.3;2.1;;;;;;;23.44;32.84863;971.2408;;;;
2020/02/22 08:21:06;;;;;;;14.7;2.3;;;;;;;23.43;33.46875;971.2648;;;;
2020/02/22 08:24:16;;;;;;;17.7;2.3;;;;;;;23.35;33.46191;971.2324;;;;
2020/02/22 08:27:26;;;;;;;14.4;2.5;;;;;;;23.29;33.17188;971.2205;;;;
2020/02/22 08:30:37;;;;;;;18.2;2.4;;;;;;;23.24;33.00098;971.2483;;;;
2020/02/22 08:33:54;;;;;;;11.6;2.5;;;;;;;23.2;33.46387;971.2253;;;;
2020/02/22 08:37:09;;;;;;;9;2.2;;;;;;;23.55;49.62012;971.3331;;;;
2020/02/22 08:40:21;;;;;;;12.8;2.2;;;;;;;-29.58;31.51563;891.5301;;;;
2020/02/22 08:43:02;;;;;;;11.9;2.6;;;;;;;-29.58;31.51563;891.5301;;;;
2020/02/22 08:46:13;;;;;;;6.2;2;;;;;;;-29.58;31.51563;891.5301;;;;
2020/02/22 08:53:55;;;;;;;4.7;1.9;;;;;;;;;;;;;
2020/02/22 08:56:29;;;;;;;11.9;2.2;;;;;;;;;;;;;
2020/02/22 08:59:03;;;;;;;10.8;2.1;;;;;;;;;;;;;
2020/02/22 09:01:37;;;;;;;11;2.2;;;;;;;;;;;;;
2020/02/22 09:04:11;;;;;;;8.2;2;;;;;;;;;;;;;
2020/02/22 09:06:45;;;;;;;7.7;2.2;;;;;;;;;;;;;
2020/02/22 09:09:21;;;;;;;5.7;1.8;;;;;;;;;;;;;
2020/02/22 09:11:55;;;;;;;7.2;2.1;;;;;;;;;;;;;
2020/02/22 09:14:29;;;;;;;9.3;2;;;;;;;;;;;;;
2020/02/22 09:17:12;;;;;;;5.6;1.9;;;;;;;;;;;;;
2020/02/22 09:19:46;;;;;;;8.4;1.9;;;;;;;;;;;;;
2020/02/22 09:22:20;;;;;;;6.8;2;;;;;;;;;;;;;
2020/02/22 09:24:53;;;;;;;6.9;2.1;;;;;;;;;;;;;
2020/02/22 09:27:30;;;;;;;4.3;1.9;;;;;;;;;;;;;
2020/02/22 09:30:07;;;;;;;13;2.2;;;;;;;;;;;;;
2020/02/22 09:32:44;;;;;;;8.4;1.9;;;;;;;;;;;;;
2020/02/22 09:35:43;;;;;;;8.6;1.9;;;;;;;;;;;;;
2020/02/22 09:38:20;;;;;;;7.7;2.1;;;;;;;;;;;;;
2020/02/22 09:40:56;;;;;;;7.9;2.1;;;;;;;;;;;;;
2020/02/22 09:43:29;;;;;;;7.2;2;;;;;;;;;;;;;
2020/02/22 09:46:01;;;;;;;7.4;2.2;;;;;;;;;;;;;
2020/02/22 09:48:34;;;;;;;5.2;1.9;;;;;;;;;;;;;
2020/02/22 09:51:07;;;;;;;6.7;1.8;;;;;;;;;;;;;
2020/02/22 09:53:45;;;;;;;5.6;1.8;;;;;;;;;;;;;
2020/02/22 09:56:20;;;;;;;6.8;1.8;;;;;;;;;;;;;
2020/02/22 09:58:52;;;;;;;6.1;1.9;;;;;;;;;;;;;
2020/02/22 10:01:27;;;;;;;5.1;1.9;;;;;;;;;;;;;
2020/02/22 10:03:59;;;;;;;4.7;1.6;;;;;;;;;;;;;
2020/02/22 10:06:31;;;;;;;6.2;2;;;;;;;;;;;;;
2020/02/22 10:09:03;;;;;;;7.6;2.1;;;;;;;;;;;;;
2020/02/22 10:11:31;;;;;;;8.5;1.9;;;;;;;;;;;;;
2020/02/22 10:14:05;;;;;;;10.5;1.9;;;;;;;;;;;;;
2020/02/22 10:16:38;;;;;;;8.7;1.9;;;;;;;;;;;;;
2020/02/22 10:19:10;;;;;;;11.2;1.9;;;;;;;;;;;;;
2020/02/22 10:21:46;;;;;;;6.6;1.9;;;;;;;;;;;;;
2020/02/22 10:24:18;;;;;;;5.6;1.8;;;;;;;;;;;;;
2020/02/22 10:26:51;;;;;;;7.7;2;;;;;;;;;;;;;
2020/02/22 10:29:24;;;;;;;9.1;2.1;;;;;;;;;;;;;
2020/02/22 10:31:56;;;;;;;7.1;1.6;;;;;;;;;;;;;
2020/02/22 10:34:29;;;;;;;5.5;1.7;;;;;;;;;;;;;
2020/02/22 10:37:05;;;;;;;8.3;1.8;;;;;;;;;;;;;
2020/02/22 10:39:38;;;;;;;8.5;2;;;;;;;;;;;;;
2020/02/22 10:42:11;;;;;;;6.3;2;;;;;;;;;;;;;
2020/02/22 10:44:43;;;;;;;5.9;1.6;;;;;;;;;;;;;
2020/02/22 10:47:16;;;;;;;5.8;2.1;;;;;;;;;;;;;
2020/02/22 10:49:49;;;;;;;4.6;1.7;;;;;;;;;;;;;
2020/02/22 10:52:35;;;;;;;8.8;2.2;;;;;;;;;;;;;
2020/02/22 10:55:14;;;;;;;10.5;1.9;;;;;;;;;;;;;
2020/02/22 10:57:49;;;;;;;9.3;2.1;;;;;;;;;;;;;
2020/02/22 11:00:26;;;;;;;8.1;1.9;;;;;;;;;;;;;
2020/02/22 11:03:11;;;;;;;8.6;1.8;;;;;;;;;;;;;
2020/02/22 11:05:44;;;;;;;8.1;2.1;;;;;;;;;;;;;
2020/02/22 11:08:16;;;;;;;9.5;2.2;;;;;;;;;;;;;
2020/02/22 11:10:48;;;;;;;8.2;2;;;;;;;;;;;;;
2020/02/22 11:13:20;;;;;;;6.6;2.1;;;;;;;;;;;;;
2020/02/22 11:15:52;;;;;;;10.1;2.4;;;;;;;;;;;;;
2020/02/22 11:18:24;;;;;;;9.1;2.2;;;;;;;;;;;;;
2020/02/22 11:20:57;;;;;;;8.8;2.2;;;;;;;;;;;;;
2020/02/22 11:23:30;;;;;;;7.8;2.2;;;;;;;;;;;;;
2020/02/22 11:26:02;;;;;;;8.3;2.6;;;;;;;;;;;;;
2020/02/22 11:28:34;;;;;;;11.3;2.7;;;;;;;;;;;;;
2020/02/22 11:31:06;;;;;;;9.7;2.3;;;;;;;;;;;;;
2020/02/22 11:33:38;;;;;;;8.1;2.3;;;;;;;;;;;;;
2020/02/22 11:36:11;;;;;;;7.3;2.2;;;;;;;;;;;;;
2020/02/22 11:38:43;;;;;;;6.6;2.1;;;;;;;;;;;;;
2020/02/22 11:41:15;;;;;;;6.8;2.4;;;;;;;;;;;;;
2020/02/22 11:43:47;;;;;;;7;2.4;;;;;;;;;;;;;
2020/02/22 11:46:19;;;;;;;6.2;2.2;;;;;;;;;;;;;
2020/02/22 11:48:51;;;;;;;6.5;2.3;;;;;;;;;;;;;
2020/02/22 11:51:23;;;;;;;5.9;2.2;;;;;;;;;;;;;
2020/02/22 11:53:55;;;;;;;6.8;2.5;;;;;;;;;;;;;
2020/02/22 11:56:27;;;;;;;7;2.4;;;;;;;;;;;;;
2020/02/22 11:59:00;;;;;;;4.4;2.4;;;;;;;;;;;;;
2020/02/22 12:01:32;;;;;;;4.7;2.2;;;;;;;;;;;;;
2020/02/22 12:04:04;;;;;;;6.9;2.4;;;;;;;;;;;;;
2020/02/22 12:06:36;;;;;;;5.3;2.2;;;;;;;;;;;;;
2020/02/22 12:09:08;;;;;;;6;2.3;;;;;;;;;;;;;
2020/02/22 12:11:43;;;;;;;8.9;2;;;;;;;;;;;;;
2020/02/22 12:14:16;;;;;;;8.9;2.5;;;;;;;;;;;;;
2020/02/22 12:16:48;;;;;;;6.5;2.3;;;;;;;;;;;;;
2020/02/22 12:19:22;;;;;;;8.8;2.2;;;;;;;;;;;;;
2020/02/22 12:21:54;;;;;;;7.8;2.2;;;;;;;;;;;;;
2020/02/22 12:24:21;;;;;;;6.6;2.4;;;;;;;;;;;;;
2020/02/22 12:26:53;;;;;;;8.3;2.2;;;;;;;;;;;;;
2020/02/22 12:29:25;;;;;;;7.6;2.1;;;;;;;;;;;;;
2020/02/22 12:31:57;;;;;;;6.6;2;;;;;;;;;;;;;
2020/02/22 12:34:29;;;;;;;7.3;2.3;;;;;;;;;;;;;
2020/02/22 12:37:01;;;;;;;6.4;1.8;;;;;;;;;;;;;
2020/02/22 12:39:34;;;;;;;8.8;2.1;;;;;;;;;;;;;
2020/02/22 12:42:06;;;;;;;5.6;2.2;;;;;;;;;;;;;
2020/02/22 12:44:38;;;;;;;6;1.6;;;;;;;;;;;;;
2020/02/22 12:47:10;;;;;;;3.1;1.5;;;;;;;;;;;;;
2020/02/22 12:49:42;;;;;;;6.4;1.7;;;;;;;;;;;;;
2020/02/22 12:52:15;;;;;;;4.1;1.6;;;;;;;;;;;;;
2020/02/22 12:54:47;;;;;;;4.4;2;;;;;;;;;;;;;
2020/02/22 12:57:19;;;;;;;5.9;2.3;;;;;;;;;;;;;
2020/02/22 12:59:51;;;;;;;6.8;1.8;;;;;;;;;;;;;
2020/02/22 13:02:23;;;;;;;4.3;1.8;;;;;;;;;;;;;
2020/02/22 13:04:55;;;;;;;4.6;1.7;;;;;;;;;;;;;
2020/02/22 13:07:27;;;;;;;4.3;1.9;;;;;;;;;;;;;
2020/02/22 13:09:59;;;;;;;5;1.8;;;;;;;;;;;;;
2020/02/22 13:12:31;;;;;;;4.6;1.7;;;;;;;;;;;;;
2020/02/22 13:15:03;;;;;;;4.9;2;;;;;;;;;;;;;
2020/02/22 13:17:35;;;;;;;4.3;1.7;;;;;;;;;;;;;
2020/02/22 13:20:07;;;;;;;7.5;2.1;;;;;;;;;;;;;
2020/02/22 13:22:39;;;;;;;6.5;1.6;;;;;;;;;;;;;
2020/02/22 13:25:11;;;;;;;6.7;2;;;;;;;;;;;;;
2020/02/22 13:27:43;;;;;;;3.9;1.7;;;;;;;;;;;;;
2020/02/22 13:30:16;;;;;;;6.1;1.8;;;;;;;;;;;;;
2020/02/22 13:32:48;;;;;;;3.4;1.6;;;;;;;;;;;;;
2020/02/22 13:35:20;;;;;;;5.7;1.6;;;;;;;;;;;;;
2020/02/22 13:37:52;;;;;;;4.2;1.7;;;;;;;;;;;;;
2020/02/22 13:40:24;;;;;;;3.8;1.5;;;;;;;;;;;;;
2020/02/22 13:42:56;;;;;;;5.7;1.5;;;;;;;;;;;;;
2020/02/22 13:45:28;;;;;;;6.7;1.7;;;;;;;;;;;;;
2020/02/22 13:48:00;;;;;;;5.2;1.7;;;;;;;;;;;;;
2020/02/22 13:50:32;;;;;;;4.7;1.6;;;;;;;;;;;;;
2020/02/22 13:53:04;;;;;;;7.1;1.6;;;;;;;;;;;;;
2020/02/22 13:55:36;;;;;;;7.6;1.6;;;;;;;;;;;;;
2020/02/22 13:58:10;;;;;;;7.9;1.6;;;;;;;;;;;;;
2020/02/22 14:00:42;;;;;;;6.5;1.6;;;;;;;;;;;;;
2020/02/22 14:03:15;;;;;;;8.1;1.6;;;;;;;;;;;;;
2020/02/22 14:05:47;;;;;;;9.1;1.8;;;;;;;;;;;;;
2020/02/22 14:08:18;;;;;;;9.8;1.6;;;;;;;;;;;;;
2020/02/22 14:10:50;;;;;;;6.8;1.7;;;;;;;;;;;;;
2020/02/22 14:13:22;;;;;;;7.6;1.6;;;;;;;;;;;;;
2020/02/22 14:15:54;;;;;;;10.9;1.6;;;;;;;;;;;;;
2020/02/22 14:18:26;;;;;;;11.6;1.8;;;;;;;;;;;;;
2020/02/22 14:20:58;;;;;;;8.5;1.8;;;;;;;;;;;;;
2020/02/22 14:23:31;;;;;;;9.1;1.7;;;;;;;;;;;;;
2020/02/22 14:26:02;;;;;;;11.9;1.7;;;;;;;;;;;;;
2020/02/22 14:28:35;;;;;;;9.7;1.8;;;;;;;;;;;;;
2020/02/22 14:33:56;;;;;;;6;1.6;;;;;;;;;;;;;
2020/02/22 14:36:28;;;;;;;9.7;1.9;;;;;;;;;;;;;
2020/02/22 14:39:00;;;;;;;6.9;1.4;;;;;;;;;;;;;
2020/02/22 14:41:34;;;;;;;6.5;1.5;;;;;;;;;;;;;
2020/02/22 14:44:06;;;;;;;5.6;1.7;;;;;;;;;;;;;
2020/02/22 14:46:38;;;;;;;4.4;1.6;;;;;;;;;;;;;
2020/02/22 14:49:10;;;;;;;6;1.5;;;;;;;;;;;;;
2020/02/22 14:51:43;;;;;;;5.4;1.7;;;;;;;;;;;;;
2020/02/22 14:54:15;;;;;;;4.6;1.2;;;;;;;;;;;;;
2020/02/22 14:56:47;;;;;;;7.4;1.7;;;;;;;;;;;;;
2020/02/22 14:59:19;;;;;;;4.7;1.8;;;;;;;;;;;;;
2020/02/22 15:01:51;;;;;;;4.9;1.6;;;;;;;;;;;;;
2020/02/22 15:04:26;;;;;;;4.1;1.5;;;;;;;;;;;;;
2020/02/22 15:06:58;;;;;;;5.1;1.4;;;;;;;;;;;;;
2020/02/22 15:09:30;;;;;;;11.3;1.6;;;;;;;;;;;;;
2020/02/22 15:12:02;;;;;;;4.2;1.5;;;;;;;;;;;;;
2020/02/22 15:14:33;;;;;;;4.9;1.2;;;;;;;;;;;;;
2020/02/22 15:17:05;;;;;;;5.8;1.3;;;;;;;;;;;;;
2020/02/22 15:19:38;;;;;;;3.9;1.3;;;;;;;;;;;;;
2020/02/22 15:22:10;;;;;;;4.3;1.4;;;;;;;;;;;;;
2020/02/22 15:24:42;;;;;;;3.1;1.2;;;;;;;;;;;;;
2020/02/22 15:27:14;;;;;;;5.1;1.3;;;;;;;;;;;;;
2020/02/22 15:29:46;;;;;;;3.1;1.3;;;;;;;;;;;;;
2020/02/22 15:32:17;;;;;;;5.2;1.3;;;;;;;;;;;;;
2020/02/22 15:34:50;;;;;;;3.2;1.2;;;;;;;;;;;;;
2020/02/22 15:37:22;;;;;;;4.5;1.4;;;;;;;;;;;;;
2020/02/22 15:39:54;;;;;;;4.5;1.4;;;;;;;;;;;;;
2020/02/22 15:42:26;;;;;;;4.2;1.4;;;;;;;;;;;;;
2020/02/22 15:44:58;;;;;;;2.9;1.3;;;;;;;;;;;;;
2020/02/22 15:47:29;;;;;;;3.9;1.4;;;;;;;;;;;;;
2020/02/22 15:50:01;;;;;;;4.9;1.4;;;;;;;;;;;;;
2020/02/22 15:52:34;;;;;;;3.4;1.3;;;;;;;;;;;;;
2020/02/22 15:55:06;;;;;;;6;1.4;;;;;;;;;;;;;
2020/02/22 15:57:38;;;;;;;6.6;1.4;;;;;;;;;;;;;
2020/02/22 16:00:10;;;;;;;4.2;1.4;;;;;;;;;;;;;
2020/02/22 16:02:45;;;;;;;3.8;1.6;;;;;;;;;;;;;
2020/02/22 16:05:17;;;;;;;2.7;1.2;;;;;;;;;;;;;
2020/02/22 16:07:49;;;;;;;3.4;1.4;;;;;;;;;;;;;
2020/02/22 16:10:21;;;;;;;4.4;1.6;;;;;;;;;;;;;
2020/02/22 16:12:53;;;;;;;4.5;1.3;;;;;;;;;;;;;
2020/02/22 16:15:25;;;;;;;4;1.4;;;;;;;;;;;;;
2020/02/22 16:17:57;;;;;;;5.8;1.3;;;;;;;;;;;;;
2020/02/22 16:20:29;;;;;;;2.9;1.5;;;;;;;;;;;;;
2020/02/22 16:23:01;;;;;;;2;1.2;;;;;;;;;;;;;
2020/02/22 16:25:34;;;;;;;2.8;1.2;;;;;;;;;;;;;
2020/02/22 16:28:06;;;;;;;2.2;1.4;;;;;;;;;;;;;
2020/02/22 16:30:38;;;;;;;3;1.5;;;;;;;;;;;;;
2020/02/22 16:33:10;;;;;;;3.2;1.3;;;;;;;;;;;;;
2020/02/22 16:35:42;;;;;;;2.6;1.3;;;;;;;;;;;;;
2020/02/22 16:38:14;;;;;;;3.3;1.5;;;;;;;;;;;;;
2020/02/22 16:40:46;;;;;;;2.9;1.3;;;;;;;;;;;;;
2020/02/22 16:43:18;;;;;;;9.9;1.5;;;;;;;;;;;;;
2020/02/22 16:45:50;;;;;;;5.8;1.5;;;;;;;;;;;;;
2020/02/22 16:48:22;;;;;;;2.6;1.4;;;;;;;;;;;;;
2020/02/22 16:50:54;;;;;;;5.1;1.4;;;;;;;;;;;;;
2020/02/22 16:53:26;;;;;;;14.6;1.8;;;;;;;;;;;;;
2020/02/22 16:55:58;;;;;;;7;1.6;;;;;;;;;;;;;
2020/02/22 16:58:30;;;;;;;9.4;1.5;;;;;;;;;;;;;
2020/02/22 17:01:03;;;;;;;7.2;1.7;;;;;;;;;;;;;
2020/02/22 17:03:35;;;;;;;7.4;1.6;;;;;;;;;;;;;
2020/02/22 17:06:07;;;;;;;7.3;1.5;;;;;;;;;;;;;
2020/02/22 17:08:39;;;;;;;5.1;1.6;;;;;;;;;;;;;
2020/02/22 17:11:12;;;;;;;4.8;1.6;;;;;;;;;;;;;
2020/02/22 17:13:44;;;;;;;4.6;1.4;;;;;;;;;;;;;
2020/02/22 17:16:16;;;;;;;4.2;1.4;;;;;;;;;;;;;
2020/02/22 17:18:48;;;;;;;3.5;1.5;;;;;;;;;;;;;
2020/02/22 17:21:20;;;;;;;5.3;1.5;;;;;;;;;;;;;
2020/02/22 17:23:52;;;;;;;2.9;1.3;;;;;;;;;;;;;
2020/02/22 17:26:24;;;;;;;3;1.2;;;;;;;;;;;;;
2020/02/22 17:28:55;;;;;;;3.6;1.5;;;;;;;;;;;;;
2020/02/22 17:31:27;;;;;;;3.7;1.4;;;;;;;;;;;;;
2020/02/22 17:33:59;;;;;;;3.4;1.2;;;;;;;;;;;;;
2020/02/22 17:36:31;;;;;;;4.4;1.6;;;;;;;;;;;;;
2020/02/22 17:39:04;;;;;;;5;1.4;;;;;;;;;;;;;
2020/02/22 17:41:36;;;;;;;3.5;1.4;;;;;;;;;;;;;
2020/02/22 17:44:08;;;;;;;2;1.1;;;;;;;;;;;;;
2020/02/22 17:46:40;;;;;;;4.4;1.4;;;;;;;;;;;;;
2020/02/22 17:49:12;;;;;;;3.4;1.2;;;;;;;;;;;;;
2020/02/22 17:51:44;;;;;;;3.7;1.3;;;;;;;;;;;;;
2020/02/22 17:54:16;;;;;;;3.5;1.5;;;;;;;;;;;;;
2020/02/22 17:56:48;;;;;;;2.8;1.3;;;;;;;;;;;;;
2020/02/22 17:59:20;;;;;;;2.2;1.4;;;;;;;;;;;;;
2020/02/22 18:01:52;;;;;;;2.8;1.2;;;;;;;;;;;;;
2020/02/22 18:04:24;;;;;;;3.1;1.5;;;;;;;;;;;;;
2020/02/22 18:06:56;;;;;;;4.4;1.5;;;;;;;;;;;;;
2020/02/22 18:09:28;;;;;;;4.4;1.3;;;;;;;;;;;;;
2020/02/22 18:12:00;;;;;;;2.5;1.5;;;;;;;;;;;;;
2020/02/22 18:14:32;;;;;;;2.2;1.3;;;;;;;;;;;;;
2020/02/22 18:17:04;;;;;;;2.1;1.3;;;;;;;;;;;;;
2020/02/22 18:19:36;;;;;;;2.4;1.4;;;;;;;;;;;;;
2020/02/22 18:22:08;;;;;;;2.1;1.3;;;;;;;;;;;;;
2020/02/22 18:24:40;;;;;;;2.4;1.6;;;;;;;;;;;;;
2020/02/22 18:27:12;;;;;;;3.7;1.7;;;;;;;;;;;;;
2020/02/22 18:29:45;;;;;;;2.1;1.4;;;;;;;;;;;;;
2020/02/22 18:32:17;;;;;;;1.5;1.2;;;;;;;;;;;;;
2020/02/22 18:34:48;;;;;;;1.9;1.4;;;;;;;;;;;;;
2020/02/22 18:37:20;;;;;;;2.1;1.3;;;;;;;;;;;;;
2020/02/22 18:39:52;;;;;;;1.9;1.4;;;;;;;;;;;;;
2020/02/22 18:42:24;;;;;;;3.1;1.3;;;;;;;;;;;;;
2020/02/22 18:44:57;;;;;;;2.1;1.5;;;;;;;;;;;;;
2020/02/22 18:47:29;;;;;;;3.6;1.5;;;;;;;;;;;;;
2020/02/22 18:50:05;;;;;;;1.8;1.3;;;;;;;;;;;;;
2020/02/22 18:52:50;;;;;;;1.9;1.2;;;;;;;;;;;;;
2020/02/22 18:55:22;;;;;;;2.3;1.4;;;;;;;;;;;;;
2020/02/22 18:57:54;;;;;;;2.1;1.2;;;;;;;;;;;;;
2020/02/22 19:00:26;;;;;;;1.7;1.4;;;;;;;;;;;;;
2020/02/22 19:02:58;;;;;;;2.2;1.2;;;;;;;;;;;;;
2020/02/22 19:05:30;;;;;;;1.6;1.3;;;;;;;;;;;;;
2020/02/22 19:08:02;;;;;;;2.7;1.1;;;;;;;;;;;;;
2020/02/22 19:10:34;;;;;;;2.4;1.3;;;;;;;;;;;;;
2020/02/22 19:13:06;;;;;;;2.5;1.4;;;;;;;;;;;;;
2020/02/22 19:15:38;;;;;;;1.5;1.2;;;;;;;;;;;;;
2020/02/22 19:18:10;;;;;;;1.8;1.3;;;;;;;;;;;;;
2020/02/22 19:20:42;;;;;;;1.8;1.3;;;;;;;;;;;;;
2020/02/22 19:23:14;;;;;;;1.4;1.3;;;;;;;;;;;;;
2020/02/22 19:25:46;;;;;;;2.3;1.2;;;;;;;;;;;;;
2020/02/22 19:28:18;;;;;;;2;1.3;;;;;;;;;;;;;
2020/02/22 19:30:50;;;;;;;2.2;1.2;;;;;;;;;;;;;
2020/02/22 19:33:22;;;;;;;1.8;1.2;;;;;;;;;;;;;
2020/02/22 19:35:54;;;;;;;1.9;1.3;;;;;;;;;;;;;
2020/02/22 19:38:26;;;;;;;1.5;1.2;;;;;;;;;;;;;
2020/02/22 19:40:58;;;;;;;2.6;1.4;;;;;;;;;;;;;
2020/02/22 19:43:30;;;;;;;1.4;1.2;;;;;;;;;;;;;
2020/02/22 19:46:02;;;;;;;1.6;1.4;;;;;;;;;;;;;
2020/02/22 19:48:34;;;;;;;1.9;1.2;;;;;;;;;;;;;
2020/02/22 19:51:06;;;;;;;1.7;1.2;;;;;;;;;;;;;
2020/02/22 19:53:48;;;;;;;1.7;1.2;;;;;;;;;;;;;
2020/02/22 19:56:21;;;;;;;1.4;1.2;;;;;;;;;;;;;
2020/02/22 19:58:55;;;;;;;1.8;1.2;;;;;;;;;;;;;
2020/02/22 20:01:33;;;;;;;1.8;1.2;;;;;;;;;;;;;
2020/02/22 20:04:06;;;;;;;1.9;1.2;;;;;;;;;;;;;
2020/02/22 20:06:37;;;;;;;1.5;1.3;;;;;;;;;;;;;
2020/02/22 20:09:08;;;;;;;1.4;1.1;;;;;;;;;;;;;
2020/02/22 20:11:57;;;;;;;1.7;1.3;;;;;;;;;;;;;
2020/02/22 20:14:30;;;;;;;1.4;1.2;;;;;;;;;;;;;
2020/02/22 20:17:02;;;;;;;1.5;1.2;;;;;;;;;;;;;
2020/02/22 20:19:34;;;;;;;1.5;1.2;;;;;;;;;;;;;
2020/02/22 20:22:06;;;;;;;1.5;1.2;;;;;;;;;;;;;
2020/02/22 20:24:38;;;;;;;1.9;1.2;;;;;;;;;;;;;
2020/02/22 20:27:10;;;;;;;1.7;1.3;;;;;;;;;;;;;
2020/02/22 20:29:42;;;;;;;2.3;1.5;;;;;;;;;;;;;
2020/02/22 20:32:15;;;;;;;1.4;1.3;;;;;;;;;;;;;
2020/02/22 20:34:48;;;;;;;1.7;1.3;;;;;;;;;;;;;
2020/02/22 20:37:20;;;;;;;1.7;1.3;;;;;;;;;;;;;
2020/02/22 20:39:52;;;;;;;1.4;1.3;;;;;;;;;;;;;
2020/02/22 20:42:24;;;;;;;1.7;1.2;;;;;;;;;;;;;
2020/02/22 20:44:56;;;;;;;1.7;1.2;;;;;;;;;;;;;
2020/02/22 20:47:28;;;;;;;1.4;1.3;;;;;;;;;;;;;
2020/02/22 20:50:00;;;;;;;1.3;1.2;;;;;;;;;;;;;
2020/02/22 20:52:32;;;;;;;2.2;1.4;;;;;;;;;;;;;
2020/02/22 20:55:04;;;;;;;2;1.2;;;;;;;;;;;;;